sensor_id;sensor_type;location;lat;lon;timestamp;pressure;altitude;pressure_sealevel;temperature;humidity
80124;BME280;69433;48.642;9.142;2023-05-16T00:01:39;96672.50;;;22.87;44.08
80124;BME280;69433;48.642;9.142;2023-05-16T00:04:04;96663.34;;;22.85;43.95
80124;BME280;69433;48.642;9.142;2023-05-16T00:06:30;96666.78;;;22.85;44.07
80124;BME280;69433;48.642;9.142;2023-05-16T00:08:58;96664.09;;;22.85;43.86
80124;BME280;69433;48.642;9.142;2023-05-16T00:11:23;96652.63;;;22.85;43.85
80124;BME280;69433;48.642;9.142;2023-05-16T00:13:49;96663.81;;;22.80;43.90
80124;BME280;69433;48.642;9.142;2023-05-16T00:16:15;96663.34;;;22.85;43.95
80124;BME280;69433;48.642;9.142;2023-05-16T00:18:41;96662.59;;;22.84;43.87
80124;BME280;69433;48.642;9.142;2023-05-16T00:21:09;96661.06;;;22.83;43.79
80124;BME280;69433;48.642;9.142;2023-05-16T00:23:35;96664.44;;;22.87;43.86
80124;BME280;69433;48.642;9.142;2023-05-16T00:26:00;96662.19;;;22.86;43.86
80124;BME280;69433;48.642;9.142;2023-05-16T00:28:25;96658.75;;;22.85;43.80
80124;BME280;69433;48.642;9.142;2023-05-16T00:30:51;96661.41;;;22.85;43.87
80124;BME280;69433;48.642;9.142;2023-05-16T00:33:16;96654.88;;;22.86;43.69
80124;BME280;69433;48.642;9.142;2023-05-16T00:35:41;96663.34;;;22.85;43.91
80124;BME280;69433;48.642;9.142;2023-05-16T00:38:14;96661.00;;;22.87;43.70
80124;BME280;69433;48.642;9.142;2023-05-16T00:40:39;96658.38;;;22.83;43.72
80124;BME280;69433;48.642;9.142;2023-05-16T00:43:04;96652.69;;;22.81;43.74
80124;BME280;69433;48.642;9.142;2023-05-16T00:45:30;96663.75;;;22.83;43.74
80124;BME280;69433;48.642;9.142;2023-05-16T00:47:56;96657.22;;;22.84;43.67
80124;BME280;69433;48.642;9.142;2023-05-16T00:50:21;96661.81;;;22.84;43.78
80124;BME280;69433;48.642;9.142;2023-05-16T00:52:46;96659.56;;;22.82;43.51
80124;BME280;69433;48.642;9.142;2023-05-16T00:55:12;96660.72;;;22.81;43.58
80124;BME280;69433;48.642;9.142;2023-05-16T00:57:38;96659.56;;;22.82;43.66
80124;BME280;69433;48.642;9.142;2023-05-16T01:00:06;96661.88;;;22.80;43.52
80124;BME280;69433;48.642;9.142;2023-05-16T01:02:36;96662.28;;;22.79;43.59
80124;BME280;69433;48.642;9.142;2023-05-16T01:05:02;96661.88;;;22.80;43.68
80124;BME280;69433;48.642;9.142;2023-05-16T01:07:32;96663.81;;;22.80;43.58
80124;BME280;69433;48.642;9.142;2023-05-16T01:09:58;96667.66;;;22.79;43.59
80124;BME280;69433;48.642;9.142;2023-05-16T01:15:24;96659.97;;;22.81;43.45
80124;BME280;69433;48.642;9.142;2023-05-16T01:17:56;96658.84;;;22.78;43.48
80124;BME280;69433;48.642;9.142;2023-05-16T01:20:32;96659.59;;;22.79;43.63
80124;BME280;69433;48.642;9.142;2023-05-16T01:23:04;96663.47;;;22.78;43.55
80124;BME280;69433;48.642;9.142;2023-05-16T01:25:55;96663.03;;;22.79;43.57
80124;BME280;69433;48.642;9.142;2023-05-16T01:28:23;96664.66;;;22.77;43.66
80124;BME280;69433;48.642;9.142;2023-05-16T01:30:49;96666.16;;;22.78;43.56
80124;BME280;69433;48.642;9.142;2023-05-16T01:33:15;96665.81;;;22.76;43.63
80124;BME280;69433;48.642;9.142;2023-05-16T01:36:04;96661.97;;;22.77;43.39
80124;BME280;69433;48.642;9.142;2023-05-16T01:38:51;96665.41;;;22.77;43.43
80124;BME280;69433;48.642;9.142;2023-05-16T01:41:34;96655.47;;;22.74;43.62
80124;BME280;69433;48.642;9.142;2023-05-16T01:44:07;96662.38;;;22.75;43.35
80124;BME280;69433;48.642;9.142;2023-05-16T01:46:44;96665.06;;;22.75;43.35
80124;BME280;69433;48.642;9.142;2023-05-16T01:49:16;96664.66;;;22.73;43.40
80124;BME280;69433;48.642;9.142;2023-05-16T01:51:50;96663.50;;;22.74;43.36
80124;BME280;69433;48.642;9.142;2023-05-16T01:54:17;96661.97;;;22.77;43.50
80124;BME280;69433;48.642;9.142;2023-05-16T01:56:51;96665.81;;;22.76;43.36
80124;BME280;69433;48.642;9.142;2023-05-16T01:59:19;96655.84;;;22.76;43.33
80124;BME280;69433;48.642;9.142;2023-05-16T02:01:45;96660.81;;;22.74;43.40
80124;BME280;69433;48.642;9.142;2023-05-16T02:04:10;96665.06;;;22.75;43.34
80124;BME280;69433;48.642;9.142;2023-05-16T02:06:37;96663.13;;;22.76;43.45
80124;BME280;69433;48.642;9.142;2023-05-16T02:09:02;96658.53;;;22.76;43.39
80124;BME280;69433;48.642;9.142;2023-05-16T02:11:28;96671.16;;;22.76;43.36
80124;BME280;69433;48.642;9.142;2023-05-16T02:13:53;96662.38;;;22.75;43.22
80124;BME280;69433;48.642;9.142;2023-05-16T02:16:18;96662.00;;;22.73;43.35
80124;BME280;69433;48.642;9.142;2023-05-16T02:18:44;96670.41;;;22.75;43.42
80124;BME280;69433;48.642;9.142;2023-05-16T02:21:10;96663.56;;;22.71;43.37
80124;BME280;69433;48.642;9.142;2023-05-16T02:23:35;96662.41;;;22.72;43.24
80124;BME280;69433;48.642;9.142;2023-05-16T02:26:00;96663.16;;;22.72;43.40
80124;BME280;69433;48.642;9.142;2023-05-16T02:28:29;96660.47;;;22.72;43.19
80124;BME280;69433;48.642;9.142;2023-05-16T02:31:00;96663.50;;;22.74;43.19
80124;BME280;69433;48.642;9.142;2023-05-16T02:33:29;96666.19;;;22.74;43.15
80124;BME280;69433;48.642;9.142;2023-05-16T02:35:54;96664.66;;;22.73;43.17
80124;BME280;69433;48.642;9.142;2023-05-16T02:38:22;96664.66;;;22.73;43.07
80124;BME280;69433;48.642;9.142;2023-05-16T02:40:47;96667.34;;;22.73;43.14
80124;BME280;69433;48.642;9.142;2023-05-16T02:43:13;96679.25;;;22.72;42.96
80124;BME280;69433;48.642;9.142;2023-05-16T02:45:38;96671.19;;;22.72;43.14
80124;BME280;69433;48.642;9.142;2023-05-16T02:48:04;96664.31;;;22.71;43.20
80124;BME280;69433;48.642;9.142;2023-05-16T02:50:29;96676.22;;;22.70;43.03
80124;BME280;69433;48.642;9.142;2023-05-16T02:52:55;96665.06;;;22.72;43.02
80124;BME280;69433;48.642;9.142;2023-05-16T02:55:21;96673.53;;;22.70;43.14
80124;BME280;69433;48.642;9.142;2023-05-16T02:57:46;96666.25;;;22.71;43.10
80124;BME280;69433;48.642;9.142;2023-05-16T03:00:12;96666.66;;;22.69;43.00
80124;BME280;69433;48.642;9.142;2023-05-16T03:02:38;96661.66;;;22.71;42.85
80124;BME280;69433;48.642;9.142;2023-05-16T03:05:04;96665.84;;;22.72;43.00
80124;BME280;69433;48.642;9.142;2023-05-16T03:07:30;96665.47;;;22.70;43.21
80124;BME280;69433;48.642;9.142;2023-05-16T03:09:57;96664.66;;;22.73;43.14
80124;BME280;69433;48.642;9.142;2023-05-16T03:12:23;96660.44;;;22.76;43.03
80124;BME280;69433;48.642;9.142;2023-05-16T03:14:48;96653.84;;;22.80;43.09
80124;BME280;69433;48.642;9.142;2023-05-16T03:17:13;96657.22;;;22.84;43.08
80124;BME280;69433;48.642;9.142;2023-05-16T03:19:38;96655.97;;;22.89;43.02
80124;BME280;69433;48.642;9.142;2023-05-16T03:22:04;96654.75;;;22.93;43.08
80124;BME280;69433;48.642;9.142;2023-05-16T03:24:29;96656.94;;;22.99;43.14
80124;BME280;69433;48.642;9.142;2023-05-16T03:26:54;96663.75;;;23.03;43.12
80124;BME280;69433;48.642;9.142;2023-05-16T03:29:20;96652.97;;;23.07;43.08
80124;BME280;69433;48.642;9.142;2023-05-16T03:31:45;96668.13;;;23.13;42.88
80124;BME280;69433;48.642;9.142;2023-05-16T03:34:10;96669.25;;;23.16;42.84
80124;BME280;69433;48.642;9.142;2023-05-16T03:36:38;96668.00;;;23.20;42.85
80124;BME280;69433;48.642;9.142;2023-05-16T03:39:07;96673.28;;;23.24;42.70
80124;BME280;69433;48.642;9.142;2023-05-16T03:41:33;96674.81;;;23.25;42.71
80124;BME280;69433;48.642;9.142;2023-05-16T03:43:59;96670.97;;;23.26;42.89
80124;BME280;69433;48.642;9.142;2023-05-16T03:46:24;96672.44;;;23.27;42.87
80124;BME280;69433;48.642;9.142;2023-05-16T03:48:49;96672.44;;;23.27;42.68
80124;BME280;69433;48.642;9.142;2023-05-16T03:51:15;96675.13;;;23.27;42.82
80124;BME280;69433;48.642;9.142;2023-05-16T03:53:40;96670.19;;;23.25;42.71
80124;BME280;69433;48.642;9.142;2023-05-16T03:56:06;96672.44;;;23.27;42.62
80124;BME280;69433;48.642;9.142;2023-05-16T03:58:32;96670.97;;;23.26;42.88
80124;BME280;69433;48.642;9.142;2023-05-16T04:00:57;96678.25;;;23.25;42.67
80124;BME280;69433;48.642;9.142;2023-05-16T04:03:22;96674.81;;;23.25;42.95
80124;BME280;69433;48.642;9.142;2023-05-16T04:05:53;96677.91;;;23.23;42.98
80124;BME280;69433;48.642;9.142;2023-05-16T04:08:20;96689.38;;;23.24;42.86
80124;BME280;69433;48.642;9.142;2023-05-16T04:10:45;96679.06;;;23.22;42.82
80124;BME280;69433;48.642;9.142;2023-05-16T04:13:11;96694.81;;;23.20;42.94
80124;BME280;69433;48.642;9.142;2023-05-16T04:15:36;96695.56;;;23.21;42.91
80124;BME280;69433;48.642;9.142;2023-05-16T04:18:01;96698.25;;;23.21;43.00
80124;BME280;69433;48.642;9.142;2023-05-16T04:20:35;96700.56;;;23.19;42.91
80124;BME280;69433;48.642;9.142;2023-05-16T04:23:01;96703.25;;;23.19;43.02
80124;BME280;69433;48.642;9.142;2023-05-16T04:25:26;96701.00;;;23.17;43.02
80124;BME280;69433;48.642;9.142;2023-05-16T04:27:52;96703.00;;;23.13;42.84
80124;BME280;69433;48.642;9.142;2023-05-16T04:30:18;96699.75;;;23.02;43.01
80124;BME280;69433;48.642;9.142;2023-05-16T04:32:43;96699.06;;;22.98;43.12
80124;BME280;69433;48.642;9.142;2023-05-16T04:35:09;96702.28;;;22.89;43.12
80124;BME280;69433;48.642;9.142;2023-05-16T04:37:36;96697.03;;;22.86;43.28
80124;BME280;69433;48.642;9.142;2023-05-16T04:40:02;96697.06;;;22.82;43.23
80124;BME280;69433;48.642;9.142;2023-05-16T04:42:27;96704.41;;;22.78;43.39
80124;BME280;69433;48.642;9.142;2023-05-16T04:44:52;96707.56;;;22.73;43.33
80124;BME280;69433;48.642;9.142;2023-05-16T04:47:18;96706.03;;;22.72;43.29
80124;BME280;69433;48.642;9.142;2023-05-16T04:49:43;96701.84;;;22.71;43.31
80124;BME280;69433;48.642;9.142;2023-05-16T04:52:08;96697.66;;;22.70;43.56
80124;BME280;69433;48.642;9.142;2023-05-16T04:54:34;96700.31;;;22.70;43.61
80124;BME280;69433;48.642;9.142;2023-05-16T04:57:00;96698.81;;;22.69;43.43
80124;BME280;69433;48.642;9.142;2023-05-16T04:59:25;96705.00;;;22.66;43.32
80124;BME280;69433;48.642;9.142;2023-05-16T05:01:50;96699.66;;;22.66;43.34
80124;BME280;69433;48.642;9.142;2023-05-16T05:04:16;96701.97;;;22.64;43.40
80124;BME280;69433;48.642;9.142;2023-05-16T05:06:42;96703.91;;;22.64;43.56
80124;BME280;69433;48.642;9.142;2023-05-16T05:09:08;96700.06;;;22.65;43.40
80124;BME280;69433;48.642;9.142;2023-05-16T05:11:34;96704.66;;;22.64;43.43
80124;BME280;69433;48.642;9.142;2023-05-16T05:14:01;96707.34;;;22.64;43.35
80124;BME280;69433;48.642;9.142;2023-05-16T05:16:27;96708.50;;;22.63;43.46
80124;BME280;69433;48.642;9.142;2023-05-16T05:18:53;96704.25;;;22.66;43.37
80124;BME280;69433;48.642;9.142;2023-05-16T05:21:19;96699.66;;;22.66;43.37
80124;BME280;69433;48.642;9.142;2023-05-16T05:23:44;96705.81;;;22.63;43.34
80124;BME280;69433;48.642;9.142;2023-05-16T05:26:10;96708.13;;;22.61;43.45
80124;BME280;69433;48.642;9.142;2023-05-16T05:28:36;96716.94;;;22.62;43.61
80124;BME280;69433;48.642;9.142;2023-05-16T05:31:05;96715.00;;;22.62;43.32
80124;BME280;69433;48.642;9.142;2023-05-16T05:33:30;96714.25;;;22.62;43.38
80124;BME280;69433;48.642;9.142;2023-05-16T05:35:56;96730.41;;;22.58;43.33
80124;BME280;69433;48.642;9.142;2023-05-16T05:38:21;96728.91;;;22.57;43.45
80124;BME280;69433;48.642;9.142;2023-05-16T05:40:47;96734.31;;;22.53;43.52
80124;BME280;69433;48.642;9.142;2023-05-16T05:43:14;96731.63;;;22.53;43.28
80124;BME280;69433;48.642;9.142;2023-05-16T05:45:40;96734.34;;;22.50;43.68
80124;BME280;69433;48.642;9.142;2023-05-16T05:48:06;96730.91;;;22.49;43.49
80124;BME280;69433;48.642;9.142;2023-05-16T05:50:35;96731.28;;;22.51;43.56
80124;BME280;69433;48.642;9.142;2023-05-16T05:53:01;96736.28;;;22.49;43.48
80124;BME280;69433;48.642;9.142;2023-05-16T05:55:26;96739.03;;;22.46;43.45
80124;BME280;69433;48.642;9.142;2023-05-16T05:57:52;96740.53;;;22.47;43.61
80124;BME280;69433;48.642;9.142;2023-05-16T06:00:17;96739.03;;;22.46;43.66
80124;BME280;69433;48.642;9.142;2023-05-16T06:02:42;96744.78;;;22.44;43.54
80124;BME280;69433;48.642;9.142;2023-05-16T06:05:09;96739.38;;;22.48;43.49
80124;BME280;69433;48.642;9.142;2023-05-16T06:07:34;96746.59;;;22.51;43.41
80124;BME280;69433;48.642;9.142;2023-05-16T06:10:01;96743.50;;;22.52;43.29
80124;BME280;69433;48.642;9.142;2023-05-16T06:12:29;96745.03;;;22.53;43.30
80124;BME280;69433;48.642;9.142;2023-05-16T06:14:54;96750.34;;;22.57;43.18
80124;BME280;69433;48.642;9.142;2023-05-16T06:17:20;96740.69;;;22.59;43.31
80124;BME280;69433;48.642;9.142;2023-05-16T06:19:47;96746.00;;;22.63;42.95
80124;BME280;69433;48.642;9.142;2023-05-16T06:22:13;96754.00;;;22.67;42.89
80124;BME280;69433;48.642;9.142;2023-05-16T06:24:38;96750.47;;;22.70;42.90
80124;BME280;69433;48.642;9.142;2023-05-16T06:27:04;96753.88;;;22.74;43.03
80124;BME280;69433;48.642;9.142;2023-05-16T06:29:30;96754.59;;;22.78;42.74
80124;BME280;69433;48.642;9.142;2023-05-16T06:31:55;96756.44;;;22.81;42.76
80124;BME280;69433;48.642;9.142;2023-05-16T06:34:21;96752.94;;;22.84;42.66
80124;BME280;69433;48.642;9.142;2023-05-16T06:36:53;96751.38;;;22.86;42.58
80124;BME280;69433;48.642;9.142;2023-05-16T06:39:19;96752.16;;;22.87;42.68
80124;BME280;69433;48.642;9.142;2023-05-16T06:41:44;96755.91;;;22.89;42.60
80124;BME280;69433;48.642;9.142;2023-05-16T06:44:16;96758.94;;;22.91;42.50
80124;BME280;69433;48.642;9.142;2023-05-16T06:46:41;96760.47;;;22.92;42.30
80124;BME280;69433;48.642;9.142;2023-05-16T06:49:07;96763.50;;;22.94;42.46
80124;BME280;69433;48.642;9.142;2023-05-16T06:51:32;96756.97;;;22.96;42.42
80124;BME280;69433;48.642;9.142;2023-05-16T06:53:57;96759.97;;;22.98;42.29
80124;BME280;69433;48.642;9.142;2023-05-16T06:56:24;96761.47;;;22.99;42.36
80124;BME280;69433;48.642;9.142;2023-05-16T06:58:50;96770.22;;;23.03;42.38
80124;BME280;69433;48.642;9.142;2023-05-16T07:01:15;96760.22;;;23.07;42.36
80124;BME280;69433;48.642;9.142;2023-05-16T07:03:40;96762.41;;;23.12;42.06
80124;BME280;69433;48.642;9.142;2023-05-16T07:06:16;96753.13;;;23.16;42.18
80124;BME280;69433;48.642;9.142;2023-05-16T07:08:41;96748.84;;;23.19;42.20
80124;BME280;69433;48.642;9.142;2023-05-16T07:11:07;96758.41;;;23.20;42.00
80124;BME280;69433;48.642;9.142;2023-05-16T07:13:32;96763.78;;;23.20;41.94
80124;BME280;69433;48.642;9.142;2023-05-16T07:15:57;96759.94;;;23.21;42.01
80124;BME280;69433;48.642;9.142;2023-05-16T07:18:24;96762.63;;;23.21;42.01
80124;BME280;69433;48.642;9.142;2023-05-16T07:20:49;96760.69;;;23.21;41.95
80124;BME280;69433;48.642;9.142;2023-05-16T07:23:15;96768.72;;;23.21;41.94
80124;BME280;69433;48.642;9.142;2023-05-16T07:25:40;96767.22;;;23.20;42.18
80124;BME280;69433;48.642;9.142;2023-05-16T07:28:06;96765.28;;;23.21;42.17
80124;BME280;69433;48.642;9.142;2023-05-16T07:30:31;96766.81;;;23.22;42.08
80124;BME280;69433;48.642;9.142;2023-05-16T07:32:56;96761.44;;;23.22;42.05
80124;BME280;69433;48.642;9.142;2023-05-16T07:35:22;96765.28;;;23.21;42.13
80124;BME280;69433;48.642;9.142;2023-05-16T07:37:47;96759.16;;;23.20;41.92
80124;BME280;69433;48.642;9.142;2023-05-16T07:40:12;96764.94;;;23.19;41.96
80124;BME280;69433;48.642;9.142;2023-05-16T07:42:38;96770.72;;;23.17;42.11
80124;BME280;69433;48.642;9.142;2023-05-16T07:45:05;96778.00;;;23.17;42.04
80124;BME280;69433;48.642;9.142;2023-05-16T07:47:31;96776.91;;;23.14;42.23
80124;BME280;69433;48.642;9.142;2023-05-16T07:49:57;96781.53;;;23.14;42.13
80124;BME280;69433;48.642;9.142;2023-05-16T07:52:23;96782.69;;;23.13;42.35
80124;BME280;69433;48.642;9.142;2023-05-16T07:54:48;96784.25;;;23.10;41.81
80124;BME280;69433;48.642;9.142;2023-05-16T07:57:14;96786.19;;;23.10;42.02
80124;BME280;69433;48.642;9.142;2023-05-16T07:59:39;96783.91;;;23.08;42.14
80124;BME280;69433;48.642;9.142;2023-05-16T08:02:05;96785.84;;;23.08;42.17
80124;BME280;69433;48.642;9.142;2023-05-16T08:04:30;96793.13;;;23.07;42.23
80124;BME280;69433;48.642;9.142;2023-05-16T08:06:55;96795.41;;;23.09;42.08
80124;BME280;69433;48.642;9.142;2023-05-16T08:09:20;96788.19;;;23.06;42.13
80124;BME280;69433;48.642;9.142;2023-05-16T08:11:46;96797.75;;;23.07;42.17
80124;BME280;69433;48.642;9.142;2023-05-16T08:14:11;96795.06;;;23.07;42.04
80124;BME280;69433;48.642;9.142;2023-05-16T08:16:36;96797.00;;;23.06;42.18
80124;BME280;69433;48.642;9.142;2023-05-16T08:19:02;96795.88;;;23.04;42.15
80124;BME280;69433;48.642;9.142;2023-05-16T08:21:27;96792.50;;;23.00;42.21
80124;BME280;69433;48.642;9.142;2023-05-16T08:23:53;96796.28;;;23.02;42.25
80124;BME280;69433;48.642;9.142;2023-05-16T08:26:18;96807.00;;;23.02;42.17
80124;BME280;69433;48.642;9.142;2023-05-16T08:28:43;96794.00;;;23.01;42.34
80124;BME280;69433;48.642;9.142;2023-05-16T08:31:09;96797.84;;;23.00;42.18
80124;BME280;69433;48.642;9.142;2023-05-16T08:33:35;96799.09;;;22.95;42.15
80124;BME280;69433;48.642;9.142;2023-05-16T08:36:00;96802.53;;;22.96;42.22
80124;BME280;69433;48.642;9.142;2023-05-16T08:38:25;96799.50;;;22.93;42.32
80124;BME280;69433;48.642;9.142;2023-05-16T08:40:51;96801.03;;;22.94;42.28
80124;BME280;69433;48.642;9.142;2023-05-16T08:43:16;96801.84;;;22.91;42.50
80124;BME280;69433;48.642;9.142;2023-05-16T08:45:42;96809.19;;;22.87;42.32
80124;BME280;69433;48.642;9.142;2023-05-16T08:48:08;96808.34;;;22.90;42.37
80124;BME280;69433;48.642;9.142;2023-05-16T08:50:34;96817.22;;;22.87;42.35
80124;BME280;69433;48.642;9.142;2023-05-16T08:53:05;96818.72;;;22.88;42.45
80124;BME280;69433;48.642;9.142;2023-05-16T08:55:31;96821.06;;;22.86;42.36
80124;BME280;69433;48.642;9.142;2023-05-16T08:57:58;96826.44;;;22.86;42.30
80124;BME280;69433;48.642;9.142;2023-05-16T09:00:25;96830.28;;;22.85;42.29
80124;BME280;69433;48.642;9.142;2023-05-16T09:02:51;96831.44;;;22.84;42.42
80124;BME280;69433;48.642;9.142;2023-05-16T09:05:17;96824.56;;;22.83;42.37
80124;BME280;69433;48.642;9.142;2023-05-16T09:07:43;96827.69;;;22.78;42.52
80124;BME280;69433;48.642;9.142;2023-05-16T09:10:10;96834.16;;;22.81;42.38
80124;BME280;69433;48.642;9.142;2023-05-16T09:12:36;96830.72;;;22.80;42.61
80124;BME280;69433;48.642;9.142;2023-05-16T09:15:03;96831.09;;;22.82;42.41
80124;BME280;69433;48.642;9.142;2023-05-16T09:17:40;96828.41;;;22.82;42.35
80124;BME280;69433;48.642;9.142;2023-05-16T09:20:14;96838.41;;;22.78;42.31
80124;BME280;69433;48.642;9.142;2023-05-16T09:22:52;96830.06;;;22.76;42.42
80124;BME280;69433;48.642;9.142;2023-05-16T09:25:18;96835.81;;;22.75;42.57
80124;BME280;69433;48.642;9.142;2023-05-16T09:27:54;96838.50;;;22.75;42.58
80124;BME280;69433;48.642;9.142;2023-05-16T09:30:20;96831.22;;;22.75;42.41
80124;BME280;69433;48.642;9.142;2023-05-16T09:32:46;96824.31;;;22.74;42.32
80124;BME280;69433;48.642;9.142;2023-05-16T09:35:15;96840.38;;;22.74;42.50
80124;BME280;69433;48.642;9.142;2023-05-16T09:37:50;96836.19;;;22.73;42.37
80124;BME280;69433;48.642;9.142;2023-05-16T09:40:22;96842.72;;;22.72;42.43
80124;BME280;69433;48.642;9.142;2023-05-16T09:43:01;96841.53;;;22.73;42.35
80124;BME280;69433;48.642;9.142;2023-05-16T09:45:29;96839.66;;;22.70;42.42
80124;BME280;69433;48.642;9.142;2023-05-16T09:48:09;96835.44;;;22.73;42.32
80124;BME280;69433;48.642;9.142;2023-05-16T09:50:37;96842.31;;;22.74;42.53
80124;BME280;69433;48.642;9.142;2023-05-16T09:53:03;96834.66;;;22.72;42.43
80124;BME280;69433;48.642;9.142;2023-05-16T09:55:29;96834.25;;;22.74;42.47
80124;BME280;69433;48.642;9.142;2023-05-16T09:57:55;96835.03;;;22.74;42.34
80124;BME280;69433;48.642;9.142;2023-05-16T10:00:20;96827.78;;;22.75;42.43
80124;BME280;69433;48.642;9.142;2023-05-16T10:02:46;96832.00;;;22.72;42.28
80124;BME280;69433;48.642;9.142;2023-05-16T10:05:13;96832.00;;;22.72;42.52
80124;BME280;69433;48.642;9.142;2023-05-16T10:07:43;96825.09;;;22.75;42.24
80124;BME280;69433;48.642;9.142;2023-05-16T10:10:09;96829.66;;;22.74;42.27
80124;BME280;69433;48.642;9.142;2023-05-16T10:12:44;96823.53;;;22.74;42.39
80124;BME280;69433;48.642;9.142;2023-05-16T10:15:09;96817.81;;;22.75;42.51
80124;BME280;69433;48.642;9.142;2023-05-16T10:17:37;96829.66;;;22.74;42.36
80124;BME280;69433;48.642;9.142;2023-05-16T10:20:05;96823.19;;;22.72;42.48
80124;BME280;69433;48.642;9.142;2023-05-16T10:22:35;96831.59;;;22.74;42.40
80124;BME280;69433;48.642;9.142;2023-05-16T10:27:55;96831.22;;;22.75;42.22
80124;BME280;69433;48.642;9.142;2023-05-16T10:30:21;96820.50;;;22.75;42.27
80124;BME280;69433;48.642;9.142;2023-05-16T10:32:46;96834.25;;;22.74;42.39
80124;BME280;69433;48.642;9.142;2023-05-16T10:35:13;96825.84;;;22.75;42.21
80124;BME280;69433;48.642;9.142;2023-05-16T10:37:38;96832.72;;;22.76;42.28
80124;BME280;69433;48.642;9.142;2023-05-16T10:40:05;96825.88;;;22.72;42.34
80124;BME280;69433;48.642;9.142;2023-05-16T10:42:31;96831.22;;;22.72;42.50
80124;BME280;69433;48.642;9.142;2023-05-16T10:45:17;96832.00;;;22.72;42.20
80124;BME280;69433;48.642;9.142;2023-05-16T10:47:57;96835.81;;;22.71;42.23
80124;BME280;69433;48.642;9.142;2023-05-16T10:50:30;96834.31;;;22.70;42.37
80124;BME280;69433;48.642;9.142;2023-05-16T10:55:48;96829.31;;;22.72;42.29
80124;BME280;69433;48.642;9.142;2023-05-16T10:58:22;96827.03;;;22.71;42.34
80124;BME280;69433;48.642;9.142;2023-05-16T11:00:47;96827.44;;;22.69;42.45
80124;BME280;69433;48.642;9.142;2023-05-16T11:03:22;96832.00;;;22.72;42.31
80124;BME280;69433;48.642;9.142;2023-05-16T11:05:52;96833.56;;;22.70;42.38
80124;BME280;69433;48.642;9.142;2023-05-16T11:08:18;96835.91;;;22.68;42.38
80124;BME280;69433;48.642;9.142;2023-05-16T11:10:43;96839.66;;;22.70;42.45
80124;BME280;69433;48.642;9.142;2023-05-16T11:13:09;96841.19;;;22.71;42.33
80124;BME280;69433;48.642;9.142;2023-05-16T11:15:34;96841.16;;;22.75;42.33
80124;BME280;69433;48.642;9.142;2023-05-16T11:18:07;96837.72;;;22.74;42.25
80124;BME280;69433;48.642;9.142;2023-05-16T11:20:34;96847.28;;;22.75;42.25
80124;BME280;69433;48.642;9.142;2023-05-16T11:25:48;96851.81;;;22.78;42.16
80124;BME280;69433;48.642;9.142;2023-05-16T11:28:16;96853.78;;;22.78;42.20
80124;BME280;69433;48.642;9.142;2023-05-16T11:30:44;96851.81;;;22.78;42.18
80124;BME280;69433;48.642;9.142;2023-05-16T11:33:10;96858.69;;;22.79;42.25
80124;BME280;69433;48.642;9.142;2023-05-16T11:35:38;96859.53;;;22.76;42.23
80124;BME280;69433;48.642;9.142;2023-05-16T11:38:04;96858.00;;;22.75;42.28
80124;BME280;69433;48.642;9.142;2023-05-16T11:40:30;96863.31;;;22.79;42.21
80124;BME280;69433;48.642;9.142;2023-05-16T11:42:59;96871.34;;;22.79;42.46
80124;BME280;69433;48.642;9.142;2023-05-16T11:45:28;96864.81;;;22.80;42.38
80124;BME280;69433;48.642;9.142;2023-05-16T11:47:53;96874.38;;;22.81;42.32
80124;BME280;69433;48.642;9.142;2023-05-16T11:50:21;96875.53;;;22.80;42.32
80124;BME280;69433;48.642;9.142;2023-05-16T11:52:49;96865.97;;;22.79;42.26
80124;BME280;69433;48.642;9.142;2023-05-16T11:55:19;96874.03;;;22.79;42.36
80124;BME280;69433;48.642;9.142;2023-05-16T11:57:44;96873.25;;;22.78;42.30
80124;BME280;69433;48.642;9.142;2023-05-16T12:00:13;96874.78;;;22.79;42.39
80124;BME280;69433;48.642;9.142;2023-05-16T12:02:40;96877.47;;;22.79;42.44
80124;BME280;69433;48.642;9.142;2023-05-16T12:05:09;96876.28;;;22.80;42.40
80124;BME280;69433;48.642;9.142;2023-05-16T12:07:38;96877.06;;;22.81;42.46
80124;BME280;69433;48.642;9.142;2023-05-16T12:10:07;96883.25;;;22.78;42.20
80124;BME280;69433;48.642;9.142;2023-05-16T12:12:33;96884.81;;;22.75;42.27
80124;BME280;69433;48.642;9.142;2023-05-16T12:14:59;96877.94;;;22.71;42.34
80124;BME280;69433;48.642;9.142;2023-05-16T12:17:25;96878.72;;;22.71;42.67
80124;BME280;69433;48.642;9.142;2023-05-16T12:19:51;96882.53;;;22.70;42.60
80124;BME280;69433;48.642;9.142;2023-05-16T12:22:16;96884.06;;;22.71;42.86
80124;BME280;69433;48.642;9.142;2023-05-16T12:24:45;96882.53;;;22.70;42.93
80124;BME280;69433;48.642;9.142;2023-05-16T12:27:10;96890.25;;;22.68;43.00
80124;BME280;69433;48.642;9.142;2023-05-16T12:29:36;96880.34;;;22.65;42.71
80124;BME280;69433;48.642;9.142;2023-05-16T12:32:02;96881.09;;;22.66;42.77
80124;BME280;69433;48.642;9.142;2023-05-16T12:34:29;96884.19;;;22.64;42.88
80124;BME280;69433;48.642;9.142;2023-05-16T12:36:55;96881.94;;;22.59;42.87
80124;BME280;69433;48.642;9.142;2023-05-16T12:39:20;96887.66;;;22.61;42.88
80124;BME280;69433;48.642;9.142;2023-05-16T12:41:47;96884.22;;;22.61;42.92
80124;BME280;69433;48.642;9.142;2023-05-16T12:44:16;96884.63;;;22.59;42.82
80124;BME280;69433;48.642;9.142;2023-05-16T12:46:49;96894.59;;;22.58;43.07
80124;BME280;69433;48.642;9.142;2023-05-16T12:49:19;96894.91;;;22.64;43.10
80124;BME280;69433;48.642;9.142;2023-05-16T12:51:54;96895.78;;;22.57;42.21
80124;BME280;69433;48.642;9.142;2023-05-16T12:54:20;96900.81;;;22.52;42.56
80124;BME280;69433;48.642;9.142;2023-05-16T12:56:47;96906.16;;;22.52;42.86
80124;BME280;69433;48.642;9.142;2023-05-16T12:59:12;96906.53;;;22.54;42.48
80124;BME280;69433;48.642;9.142;2023-05-16T13:01:38;96903.50;;;22.52;42.54
80124;BME280;69433;48.642;9.142;2023-05-16T13:04:05;96910.41;;;22.49;42.51
80124;BME280;69433;48.642;9.142;2023-05-16T13:06:39;96906.56;;;22.50;42.19
80124;BME280;69433;48.642;9.142;2023-05-16T13:09:05;96904.31;;;22.49;42.28
80124;BME280;69433;48.642;9.142;2023-05-16T13:11:31;96907.31;;;22.51;41.99